Lubbock, TX

12:58 AM CDT on June 03, 2015 (GMT -0500)
Winston | | Change Station
CLOSE
Current Station
Airport
Location: Snyder,
Elevation: 2431 ft
Nearby Weather Stations

Elev 2431 ft 32.69 °N, 100.95 °W | Updated 23 minutes ago

Clear
Clear
71 °F
Feels Like 71 °F
N
10
Wind Variable Wind from SSE

Today
High -- | Low -- °F
--% Chance of Precip.
Yesterday
High -- | Low -- °F
Precip. -- in
6:37 AM 8:53 PM
Full, 100% visible
Pressure 29.95 in
Visibility 10.0 miles
Clouds Clear
Dew Point 62 °F
Humidity 74%
Rainfall 0.00 in
Snow Depth Not available.
UV 0 out of 12
Pollen 4.60 out of 12
Air Quality Not available.
Flu Activity Local Activity
METAR KSNK 030535Z AUTO 16009KT 10SM CLR 22/17 A2995 RMK AO2 T02160168 TSNO

More Conditions Fewer Conditions

Pressure 29.95 in
Visibility 10.0 miles
Clouds Clear
Dew Point 62 °F
Humidity 74%
Rainfall 0.00 in
Snow Depth Not available.
UV 0 out of 12
Pollen 4.60 out of 12
Air Quality Not available.
Flu Activity Local Activity
METAR KSNK 030535Z AUTO 16009KT 10SM CLR 22/17 A2995 RMK AO2 T02160168 TSNO

More Conditions Fewer Conditions

10-Day Weather Forecast

×

Almanac

Astronomy

Jun. 03, 2015 Rise Set
Actual Time
Civil Twilight
Nautical Twilight
Astronomical Twilight
Moon
Length of Visible Light
Length of Day
Tomorrow will be .
, % of the Moon is Illuminated

Today's Extremes

State Highs State Lows

Community

WunderPhotos

Upload Photos

1,826,177 photos uploaded!

WunderBlogs® & News

Nearby

Air Quality

  Air Quality AQ Index Pollutant
Not available.

Snow Depth

Station Depth Elevation

Earthquake Activity

City Distance Mag. Time & Date
Minimum magnitude displayed is 2.5.

Coastal Water Temperatures

Place Temperature

Stations

Nearby Weather Stations

Station Location Temp. Windchill Dew Point Humidity Wind Precip. Elev Updated Type